Airfield :







YOU CAN JOIN US ON...

 
LOGIN :

Register | Disclaimer

   EN    FR    IT 

 









Legend :    VFR   Marginal VFR   IFR   Intensive IFR   Very Intensive IFR
Visi :
Ceiling :
>= 8 km
>= 3000ft
5 to 8 km
1000 to 3000 ft
1500m to 5 km
500 to 1000 ft
800 to 1500m
200 to 500 ft
< 800m
< 200 ft
Symbols :   Thunderstorms  Fog  Heavy snow  Heavy precipitations  Wind > 20 kt






- Airport Elevation : 9 ft
- IATA code : SJU


TJSJ - Luis Munoz Marin Int.

CURRENT METAR :
  • 060256Z 13003KT 10SM FEW025 BKN055 26/24 A3004 RMK AO2 RAB28E49 SLP170 P0000 60077 T02560239 51011

EXPIRED METARs :
  • 060156Z 05005KT 10SM SCT018 SCT025 BKN038 26/23 A3004 RMK AO2 RAE52 SLP170 P0005 T02610233
  • 060056Z 04011KT 9SM -RA SCT014 SCT033 SCT050 26/23 A3002 RMK AO2 RAE43B53 TSB13B22B28E43 SLP164 P0072 T02560233
  • 060043Z 04008KT 4SM SCT014 SCT033 SCT055 26/23 A3001 RMK AO2 RAE43 TSB13B22B28E43 P0061 T02560233
  • 060019Z 05005KT 2SM TSRA BR BKN014CB BKN019 26/23 A3001 RMK AO2 TSB13 OCNL LTGIC N-S TS N-S MOV N P0049 T02560233

TAF TJSJ
Valid from the 06 at 01:00 until the 07 at 00:00 UTC


060041Z 0601/0624 05008KT P6SM -SHRA VCSH SCT025 BKN050 BKN080
TEMPO 0601/0602 VRB12KT 4SM SHRA FEW018 BKN025 OVC050
FM060230 VRB03KT P6SM FEW030 SCT050 BKN080
FM060600 09005KT P6SM VCSH SCT025 BKN050
FM061400 06012KT P6SM SCT030 SCT060



MET'MAP, your aeronautical weather chart ! - Copyright ORBIFLY December 2007 - Disclaimer

ORBIFLY MET'MAP TEAM :

Programming & Development : Alexandra Zaïnal
Concept & original design : Baudouin d'Aumeries
Assistance for programming : Marc-Olivier Méhu
Technical & hardware support : Manuel Goepfert

Contact : metmap@orbifly.com




SOURCES & CREDITS :

   NOAA